createdAt,value
2023-05-22T00:00:20.220Z,16.10
2023-05-22T00:02:47.210Z,16.10
2023-05-22T00:05:15.250Z,15.90
2023-05-22T00:07:43.292Z,15.80
2023-05-22T00:10:10.979Z,15.90
2023-05-22T00:12:37.868Z,15.80
2023-05-22T00:15:06.001Z,15.70
2023-05-22T00:17:34.556Z,15.80
2023-05-22T00:20:04.430Z,15.80
2023-05-22T00:22:31.665Z,15.70
2023-05-22T00:25:01.630Z,15.60
2023-05-22T00:27:28.997Z,15.60
2023-05-22T00:29:55.925Z,15.60
2023-05-22T00:32:22.744Z,15.60
2023-05-22T00:34:50.374Z,15.60
2023-05-22T00:37:19.718Z,15.50
2023-05-22T00:39:47.063Z,15.50
2023-05-22T00:42:14.128Z,15.60
2023-05-22T00:44:41.819Z,15.50
2023-05-22T00:47:11.901Z,15.50
2023-05-22T00:49:39.445Z,15.60
2023-05-22T00:52:06.414Z,15.60
2023-05-22T00:54:33.453Z,15.60
2023-05-22T00:57:01.422Z,15.60
2023-05-22T00:59:29.810Z,15.60
2023-05-22T01:01:57.350Z,15.70
2023-05-22T01:04:25.951Z,15.60
2023-05-22T01:06:54.499Z,15.50
2023-05-22T01:09:21.316Z,15.40
2023-05-22T01:11:55.801Z,15.20
2023-05-22T01:14:25.759Z,15.30
2023-05-22T01:17:34.574Z,15.40
2023-05-22T01:20:19.926Z,15.20
2023-05-22T01:23:24.789Z,15.20
2023-05-22T01:26:05.699Z,15.10
2023-05-22T01:28:53.713Z,14.90
2023-05-22T01:31:25.893Z,14.80
2023-05-22T01:34:00.881Z,14.80
2023-05-22T01:36:31.638Z,14.90
2023-05-22T01:39:01.432Z,14.90
2023-05-22T01:41:29.895Z,14.90
2023-05-22T01:43:57.331Z,14.90
2023-05-22T01:46:29.355Z,14.90
2023-05-22T01:48:57.132Z,14.90
2023-05-22T01:51:53.617Z,14.90
2023-05-22T01:54:52.890Z,14.80
2023-05-22T01:57:24.956Z,14.80
2023-05-22T01:59:54.550Z,14.90
2023-05-22T02:02:23.672Z,15.00
2023-05-22T02:04:59.841Z,14.80
2023-05-22T02:07:28.970Z,14.80
2023-05-22T02:09:57.648Z,14.80
2023-05-22T02:12:25.469Z,14.70
2023-05-22T02:14:52.586Z,14.60
2023-05-22T02:17:22.011Z,14.70
2023-05-22T02:19:48.992Z,14.60
2023-05-22T02:22:15.835Z,14.70
2023-05-22T02:24:46.713Z,14.60
2023-05-22T02:27:14.556Z,14.90
2023-05-22T02:29:41.319Z,15.00
2023-05-22T02:32:08.495Z,14.80
2023-05-22T02:34:35.398Z,14.70
2023-05-22T02:37:06.098Z,14.50
2023-05-22T02:39:33.041Z,14.60
2023-05-22T02:41:59.775Z,14.50
2023-05-22T02:44:27.194Z,14.50
2023-05-22T02:46:54.399Z,14.60
2023-05-22T02:49:21.316Z,14.40
2023-05-22T02:51:48.566Z,14.30
2023-05-22T02:54:16.410Z,14.40
2023-05-22T02:56:43.809Z,14.40
2023-05-22T02:59:11.288Z,14.40
2023-05-22T03:01:38.780Z,14.40
2023-05-22T03:04:06.636Z,14.50
2023-05-22T03:06:35.211Z,14.60
2023-05-22T03:09:03.923Z,14.40
2023-05-22T03:11:31.858Z,14.30
2023-05-22T03:13:59.253Z,14.20
2023-05-22T03:16:26.720Z,14.20
2023-05-22T03:19:13.707Z,14.20
2023-05-22T03:21:43.911Z,14.30
2023-05-22T03:24:12.565Z,14.20
2023-05-22T03:26:39.626Z,14.00
2023-05-22T03:29:09.415Z,14.10
2023-05-22T03:31:39.508Z,14.10
2023-05-22T03:34:12.018Z,14.20
2023-05-22T03:36:39.239Z,14.20
2023-05-22T03:39:10.552Z,14.20
2023-05-22T03:41:42.314Z,14.20
2023-05-22T03:44:09.130Z,14.20
2023-05-22T03:46:35.916Z,14.10
2023-05-22T03:49:02.806Z,14.10
2023-05-22T03:51:31.873Z,14.00
2023-05-22T03:53:58.664Z,14.00
2023-05-22T03:56:25.836Z,14.20
2023-05-22T03:58:52.658Z,14.20
2023-05-22T04:01:19.405Z,13.90
2023-05-22T04:03:46.293Z,14.00
2023-05-22T04:06:13.801Z,14.20
2023-05-22T04:08:40.775Z,14.00
2023-05-22T04:11:08.261Z,13.80
2023-05-22T04:13:35.140Z,13.70
2023-05-22T04:16:02.124Z,13.80
2023-05-22T04:18:29.193Z,13.90
2023-05-22T04:20:57.634Z,13.80
2023-05-22T04:23:24.768Z,13.80
2023-05-22T04:25:52.025Z,13.80
2023-05-22T04:28:22.435Z,13.80
2023-05-22T04:30:49.475Z,13.80
2023-05-22T04:33:18.231Z,14.10
2023-05-22T04:35:45.142Z,14.10
2023-05-22T04:38:11.943Z,14.10
2023-05-22T04:40:38.968Z,13.90
2023-05-22T04:43:06.241Z,14.00
2023-05-22T04:45:33.118Z,14.00
2023-05-22T04:48:02.742Z,14.30
2023-05-22T04:50:33.191Z,14.20
2023-05-22T04:53:00.355Z,14.20
2023-05-22T04:55:27.327Z,14.40
2023-05-22T04:57:54.069Z,14.40
2023-05-22T05:00:26.343Z,14.50
2023-05-22T05:02:53.467Z,14.70
2023-05-22T05:05:20.614Z,14.70
2023-05-22T05:07:50.345Z,14.70
2023-05-22T05:10:17.948Z,14.60
2023-05-22T05:12:44.724Z,14.70
2023-05-22T05:15:12.219Z,14.60
2023-05-22T05:17:39.466Z,14.80
2023-05-22T05:20:08.056Z,15.00
2023-05-22T05:22:34.947Z,15.00
2023-05-22T05:25:04.056Z,15.20
2023-05-22T05:27:30.867Z,15.10
2023-05-22T05:29:57.706Z,15.10
2023-05-22T05:32:31.170Z,15.40
2023-05-22T05:35:11.054Z,15.50
2023-05-22T05:38:01.716Z,15.40
2023-05-22T05:40:29.451Z,15.50
2023-05-22T05:42:56.424Z,15.50
2023-05-22T05:45:26.319Z,15.60
2023-05-22T05:47:53.271Z,15.50
2023-05-22T05:50:20.362Z,15.50
2023-05-22T05:52:47.786Z,15.40
2023-05-22T05:55:17.519Z,15.50
2023-05-22T05:57:44.273Z,15.70
2023-05-22T06:00:19.183Z,15.70
2023-05-22T06:02:50.742Z,15.70
2023-05-22T06:05:38.439Z,15.90
2023-05-22T06:08:21.860Z,15.90
2023-05-22T06:10:49.100Z,16.00
2023-05-22T06:13:30.829Z,16.00
2023-05-22T06:16:01.207Z,16.50
2023-05-22T06:18:29.125Z,16.60
2023-05-22T06:20:58.962Z,16.70
2023-05-22T06:23:25.854Z,16.80
2023-05-22T06:25:54.023Z,16.70
2023-05-22T06:28:21.313Z,16.60
2023-05-22T06:30:48.876Z,16.80
2023-05-22T06:33:18.927Z,16.80
2023-05-22T06:35:45.952Z,17.10
2023-05-22T06:38:12.872Z,17.10
2023-05-22T06:40:41.896Z,17.20
2023-05-22T06:43:14.688Z,17.30
2023-05-22T06:46:19.544Z,17.40
2023-05-22T06:48:51.889Z,17.30
2023-05-22T06:51:24.472Z,17.30
2023-05-22T06:53:55.210Z,17.10
2023-05-22T06:56:26.262Z,17.20
2023-05-22T06:59:08.361Z,17.20
2023-05-22T07:01:53.953Z,17.30
2023-05-22T07:04:31.368Z,17.30
2023-05-22T07:07:01.237Z,17.70
2023-05-22T07:09:29.268Z,18.00
2023-05-22T07:11:56.268Z,18.20
2023-05-22T07:14:23.179Z,18.10
2023-05-22T07:16:51.180Z,18.30
2023-05-22T07:19:24.746Z,18.30
2023-05-22T07:21:52.397Z,18.20
2023-05-22T07:24:21.154Z,18.30
2023-05-22T07:26:49.494Z,18.40
2023-05-22T07:29:17.291Z,18.30
2023-05-22T07:31:47.521Z,18.40
2023-05-22T07:34:14.610Z,18.50
2023-05-22T07:36:41.937Z,18.40
2023-05-22T07:39:09.609Z,18.50
2023-05-22T07:41:40.091Z,18.70
2023-05-22T07:44:09.176Z,18.70
2023-05-22T07:46:38.189Z,18.80
2023-05-22T07:49:19.462Z,19.00
2023-05-22T07:51:46.991Z,18.90
2023-05-22T07:54:15.481Z,18.90
2023-05-22T07:56:45.733Z,19.10
2023-05-22T07:59:13.668Z,19.40
2023-05-22T08:01:41.995Z,19.50
2023-05-22T08:04:09.069Z,19.60
2023-05-22T08:06:36.326Z,19.80
2023-05-22T08:09:04.703Z,20.00
2023-05-22T08:11:32.043Z,20.00
2023-05-22T08:13:58.761Z,20.00
2023-05-22T08:16:26.006Z,20.10
2023-05-22T08:18:52.911Z,20.20
2023-05-22T08:21:19.732Z,20.30
2023-05-22T08:23:46.504Z,20.40
2023-05-22T08:26:14.530Z,20.30
2023-05-22T08:28:44.194Z,20.20
2023-05-22T08:31:11.948Z,20.30
2023-05-22T08:33:39.701Z,20.40
2023-05-22T08:36:06.748Z,20.60
2023-05-22T08:38:33.673Z,20.90
2023-05-22T08:41:01.865Z,20.90
2023-05-22T08:43:29.174Z,20.90
2023-05-22T08:46:02.253Z,20.90
2023-05-22T08:48:31.915Z,20.90
2023-05-22T08:51:05.864Z,21.10
2023-05-22T08:53:36.912Z,21.20
2023-05-22T08:56:06.937Z,21.40
2023-05-22T08:58:35.805Z,21.40
2023-05-22T09:01:04.564Z,21.50
2023-05-22T09:03:35.036Z,21.60
2023-05-22T09:06:02.414Z,21.60
2023-05-22T09:08:29.305Z,21.70
2023-05-22T09:10:56.626Z,21.90
2023-05-22T09:13:28.301Z,22.00
2023-05-22T09:16:10.796Z,22.00
2023-05-22T09:18:38.846Z,22.00
2023-05-22T09:23:40.355Z,22.30
2023-05-22T09:26:07.122Z,22.50
2023-05-22T09:28:36.317Z,22.40
2023-05-22T09:31:04.480Z,22.40
2023-05-22T09:33:32.313Z,22.50
2023-05-22T09:36:00.138Z,22.70
2023-05-22T09:38:28.949Z,22.90
2023-05-22T09:40:56.646Z,22.80
2023-05-22T09:43:27.446Z,22.80
2023-05-22T09:46:00.866Z,23.00
2023-05-22T09:48:27.720Z,23.20
2023-05-22T09:50:55.803Z,23.40
2023-05-22T09:53:28.146Z,23.50
2023-05-22T09:55:57.802Z,23.30
2023-05-22T09:58:27.301Z,23.20
2023-05-22T10:00:56.254Z,23.40
2023-05-22T10:03:24.925Z,23.60
2023-05-22T10:05:54.093Z,23.90
2023-05-22T10:08:27.984Z,23.80
2023-05-22T10:10:55.173Z,23.70
2023-05-22T10:13:24.050Z,23.80
2023-05-22T10:15:51.646Z,24.10
2023-05-22T10:18:18.782Z,24.20
2023-05-22T10:20:47.060Z,24.50
2023-05-22T10:23:18.035Z,24.60
2023-05-22T10:25:45.988Z,24.50
2023-05-22T10:28:21.101Z,24.40
2023-05-22T10:31:04.037Z,24.70
2023-05-22T10:34:10.608Z,25.00
2023-05-22T10:36:43.746Z,25.10
2023-05-22T10:39:49.126Z,25.10
2023-05-22T10:42:16.733Z,25.10
2023-05-22T10:44:43.866Z,25.30
2023-05-22T10:47:13.358Z,25.60
2023-05-22T10:49:44.836Z,25.60
2023-05-22T10:52:14.586Z,25.60
2023-05-22T10:54:45.419Z,25.90
2023-05-22T10:57:17.111Z,26.10
2023-05-22T10:59:47.040Z,26.10
2023-05-22T11:02:21.305Z,26.40
2023-05-22T11:04:48.952Z,26.80
2023-05-22T11:07:16.029Z,26.90
2023-05-22T11:09:45.953Z,26.80
2023-05-22T11:12:27.387Z,26.60
2023-05-22T11:14:56.684Z,26.40
2023-05-22T11:17:24.466Z,26.70
2023-05-22T11:20:05.987Z,26.80
2023-05-22T11:22:39.808Z,27.00
2023-05-22T11:25:17.790Z,27.10
2023-05-22T11:27:45.440Z,27.10
2023-05-22T11:30:13.147Z,27.20
2023-05-22T11:32:44.374Z,27.40
2023-05-22T11:35:15.530Z,27.60
2023-05-22T11:37:42.541Z,27.80
2023-05-22T11:40:10.920Z,28.00
2023-05-22T11:42:37.979Z,28.20
2023-05-22T11:45:05.455Z,28.20
2023-05-22T11:47:32.831Z,28.20
2023-05-22T11:50:01.046Z,28.10
2023-05-22T11:52:35.513Z,28.20
2023-05-22T11:55:05.481Z,28.30
2023-05-22T11:57:32.547Z,28.50
2023-05-22T11:59:59.446Z,28.60
2023-05-22T12:02:26.563Z,28.60
2023-05-22T12:04:57.568Z,28.40
2023-05-22T12:07:26.679Z,28.30
2023-05-22T12:09:56.513Z,28.40
2023-05-22T12:12:23.570Z,28.30
2023-05-22T12:14:50.517Z,28.10
2023-05-22T12:17:18.375Z,28.20
2023-05-22T12:19:47.478Z,28.00
2023-05-22T12:22:14.719Z,28.20
2023-05-22T12:24:45.999Z,28.40
2023-05-22T12:27:13.515Z,28.40
2023-05-22T12:29:41.786Z,28.40
2023-05-22T12:32:13.725Z,28.00
2023-05-22T12:34:45.672Z,28.00
2023-05-22T12:37:25.065Z,28.30
2023-05-22T12:39:59.753Z,28.70
2023-05-22T12:42:27.803Z,29.00
2023-05-22T12:44:56.276Z,29.10
2023-05-22T12:47:24.988Z,29.30
2023-05-22T12:49:52.330Z,29.20
2023-05-22T12:52:19.773Z,29.10
2023-05-22T12:54:46.707Z,29.30
2023-05-22T12:57:13.810Z,29.30
2023-05-22T12:59:40.830Z,29.30
2023-05-22T13:02:08.110Z,29.30
2023-05-22T13:04:35.142Z,29.30
2023-05-22T13:07:02.042Z,29.30
2023-05-22T13:09:29.082Z,29.30
2023-05-22T13:11:56.471Z,29.40
2023-05-22T13:14:23.430Z,29.50
2023-05-22T13:16:50.617Z,29.80
2023-05-22T13:19:17.863Z,29.90
2023-05-22T13:21:44.834Z,29.70
2023-05-22T13:24:11.725Z,29.70
2023-05-22T13:26:38.916Z,29.90
2023-05-22T13:29:05.739Z,29.70
2023-05-22T13:31:37.532Z,29.80
2023-05-22T13:34:05.054Z,30.00
2023-05-22T13:36:32.511Z,30.00
2023-05-22T13:38:59.567Z,29.90
2023-05-22T13:41:26.660Z,30.00
2023-05-22T13:43:53.805Z,30.00
2023-05-22T13:46:22.143Z,30.20
2023-05-22T13:48:49.340Z,30.30
2023-05-22T13:51:16.184Z,30.30
2023-05-22T13:53:42.995Z,30.20
2023-05-22T13:56:09.944Z,30.00
2023-05-22T13:58:36.823Z,29.70
2023-05-22T14:01:04.027Z,29.70
2023-05-22T14:03:31.034Z,29.70
2023-05-22T14:05:57.876Z,29.70
2023-05-22T14:08:25.161Z,29.80
2023-05-22T14:10:52.243Z,29.80
2023-05-22T14:13:19.399Z,29.90
2023-05-22T14:15:49.397Z,29.90
2023-05-22T14:18:16.785Z,29.70
2023-05-22T14:20:44.628Z,29.50
2023-05-22T14:23:12.697Z,29.30
2023-05-22T14:25:45.700Z,29.20
2023-05-22T14:28:12.953Z,28.80
2023-05-22T14:30:40.438Z,28.70
2023-05-22T14:33:07.452Z,28.50
2023-05-22T14:35:34.657Z,28.00
2023-05-22T14:38:02.062Z,27.70
2023-05-22T14:40:28.913Z,27.50
2023-05-22T14:42:55.978Z,27.30
2023-05-22T14:45:23.003Z,27.20
2023-05-22T14:47:49.988Z,27.30
2023-05-22T14:50:19.954Z,27.40
2023-05-22T14:52:51.292Z,27.40
2023-05-22T14:55:18.807Z,27.40
2023-05-22T14:57:45.719Z,27.50
2023-05-22T15:00:13.384Z,27.60
2023-05-22T15:02:43.382Z,27.70
2023-05-22T15:05:10.500Z,27.80
2023-05-22T15:10:08.838Z,27.80
2023-05-22T15:12:35.976Z,27.80
2023-05-22T15:15:02.863Z,27.80
2023-05-22T15:17:29.819Z,27.90
2023-05-22T15:19:56.817Z,27.90
2023-05-22T15:22:24.541Z,27.60
2023-05-22T15:25:11.543Z,27.50
2023-05-22T15:27:39.157Z,27.50
2023-05-22T15:30:06.849Z,27.60
2023-05-22T15:32:33.791Z,27.80
2023-05-22T15:35:00.809Z,28.00
2023-05-22T15:37:29.695Z,28.20
2023-05-22T15:39:58.522Z,28.30
2023-05-22T15:42:25.394Z,28.30
2023-05-22T15:44:52.366Z,28.50
2023-05-22T15:47:19.118Z,28.70
2023-05-22T15:49:46.018Z,28.60
2023-05-22T15:52:12.909Z,28.60
2023-05-22T15:54:39.798Z,28.70
2023-05-22T15:57:06.725Z,28.80
2023-05-22T15:59:33.563Z,28.90
2023-05-22T16:02:00.523Z,29.00
2023-05-22T16:04:27.422Z,29.00
2023-05-22T16:06:54.324Z,28.80
2023-05-22T16:09:21.128Z,28.60
2023-05-22T16:11:48.008Z,28.60
2023-05-22T16:14:14.806Z,28.50
2023-05-22T16:16:41.712Z,28.40
2023-05-22T16:19:08.831Z,28.60
2023-05-22T16:21:35.905Z,28.50
2023-05-22T16:24:04.733Z,28.40
2023-05-22T16:26:31.525Z,28.30
2023-05-22T16:28:58.311Z,28.30
2023-05-22T16:31:25.112Z,28.30
2023-05-22T16:33:53.178Z,28.20
2023-05-22T16:36:19.931Z,28.20
2023-05-22T16:38:46.818Z,28.10
2023-05-22T16:41:13.839Z,28.00
2023-05-22T16:43:40.692Z,27.80
2023-05-22T16:46:08.234Z,27.70
2023-05-22T16:48:35.386Z,27.50
2023-05-22T16:51:02.493Z,27.30
2023-05-22T16:53:29.267Z,26.90
2023-05-22T16:55:56.219Z,26.50
2023-05-22T16:58:23.013Z,26.20
2023-05-22T17:00:50.215Z,26.00
2023-05-22T17:03:17.106Z,25.80
2023-05-22T17:05:44.066Z,25.80
2023-05-22T17:08:11.074Z,25.70
2023-05-22T17:10:38.091Z,25.70
2023-05-22T17:13:05.009Z,25.60
2023-05-22T17:15:31.866Z,25.40
2023-05-22T17:18:01.959Z,25.20
2023-05-22T17:20:29.729Z,25.10
2023-05-22T17:23:20.019Z,25.00
2023-05-22T17:25:47.361Z,24.70
2023-05-22T17:28:14.824Z,24.50
2023-05-22T17:30:43.286Z,24.50
2023-05-22T17:33:11.303Z,23.80
2023-05-22T17:35:38.131Z,23.30
2023-05-22T17:38:07.165Z,22.80
2023-05-22T17:40:44.257Z,21.80
2023-05-22T17:43:12.047Z,21.20
2023-05-22T17:45:39.375Z,21.20
2023-05-22T17:48:07.605Z,20.90
2023-05-22T17:50:34.418Z,20.50
2023-05-22T17:53:01.319Z,20.20
2023-05-22T17:55:28.280Z,20.40
2023-05-22T17:57:55.402Z,20.60
2023-05-22T18:00:22.250Z,20.70
2023-05-22T18:02:49.089Z,20.80
2023-05-22T18:05:16.194Z,20.90
2023-05-22T18:07:43.183Z,20.90
2023-05-22T18:10:10.167Z,20.80
2023-05-22T18:12:38.326Z,20.60
2023-05-22T18:15:08.382Z,20.50
2023-05-22T18:17:35.313Z,20.40
2023-05-22T18:20:02.201Z,20.20
2023-05-22T18:22:29.059Z,20.10
2023-05-22T18:24:56.198Z,20.10
2023-05-22T18:27:23.070Z,20.10
2023-05-22T18:29:51.648Z,20.00
2023-05-22T18:32:18.436Z,19.90
2023-05-22T18:34:45.211Z,19.90
2023-05-22T18:37:12.123Z,20.10
2023-05-22T18:39:38.932Z,20.10
2023-05-22T18:42:06.457Z,20.10
2023-05-22T18:44:33.223Z,20.00
2023-05-22T18:47:00.129Z,20.00
2023-05-22T18:49:27.227Z,19.90
2023-05-22T18:51:54.036Z,19.70
2023-05-22T18:54:20.999Z,19.80
2023-05-22T18:56:48.116Z,19.90
2023-05-22T18:59:15.103Z,19.70
2023-05-22T19:01:42.159Z,19.60
2023-05-22T19:04:09.388Z,19.60
2023-05-22T19:06:36.424Z,19.60
2023-05-22T19:09:03.955Z,19.70
2023-05-22T19:11:31.104Z,19.90
2023-05-22T19:13:57.897Z,19.90
2023-05-22T19:16:24.836Z,19.70
2023-05-22T19:18:51.772Z,19.70
2023-05-22T19:21:18.867Z,19.80
2023-05-22T19:23:46.560Z,19.90
2023-05-22T19:26:13.416Z,19.90
2023-05-22T19:28:40.448Z,19.90
2023-05-22T19:31:07.755Z,19.70
2023-05-22T19:33:34.686Z,19.70
2023-05-22T19:36:06.815Z,19.60
2023-05-22T19:38:34.015Z,19.70
2023-05-22T19:41:03.571Z,19.80
2023-05-22T19:43:31.445Z,19.70
2023-05-22T19:46:01.423Z,19.80
2023-05-22T19:48:29.801Z,19.60
2023-05-22T19:50:56.623Z,19.60
2023-05-22T19:53:23.876Z,19.30
2023-05-22T19:55:50.776Z,19.20
2023-05-22T19:58:17.966Z,19.30
2023-05-22T20:00:46.872Z,19.30
2023-05-22T20:03:15.126Z,19.40
2023-05-22T20:05:42.046Z,19.30
2023-05-22T20:08:10.321Z,19.20
2023-05-22T20:10:37.231Z,19.00
2023-05-22T20:13:05.194Z,19.00
2023-05-22T20:15:32.955Z,19.10
2023-05-22T20:18:02.585Z,18.90
2023-05-22T20:20:30.167Z,18.80
2023-05-22T20:22:58.575Z,18.80
2023-05-22T20:25:25.861Z,18.80
2023-05-22T20:27:53.052Z,18.90
2023-05-22T20:30:20.070Z,18.90
2023-05-22T20:32:47.623Z,18.70
2023-05-22T20:35:18.516Z,18.70
2023-05-22T20:37:46.642Z,18.70
2023-05-22T20:40:15.176Z,18.70
2023-05-22T20:42:47.480Z,18.60
2023-05-22T20:45:15.341Z,18.60
2023-05-22T20:47:43.503Z,18.60
2023-05-22T20:50:13.161Z,18.60
2023-05-22T20:52:40.239Z,18.60
2023-05-22T20:55:07.360Z,18.50
2023-05-22T20:57:35.217Z,18.50
2023-05-22T21:00:05.160Z,18.50
2023-05-22T21:02:32.235Z,18.50
2023-05-22T21:04:59.412Z,18.60
2023-05-22T21:07:29.197Z,18.50
2023-05-22T21:09:56.362Z,18.50
2023-05-22T21:12:23.204Z,18.70
2023-05-22T21:14:50.296Z,18.50
2023-05-22T21:17:17.673Z,18.50
2023-05-22T21:19:44.576Z,18.60
2023-05-22T21:22:11.569Z,18.50
2023-05-22T21:24:38.623Z,18.50
2023-05-22T21:27:05.761Z,18.60
2023-05-22T21:29:32.513Z,18.40
2023-05-22T21:31:59.676Z,18.30
2023-05-22T21:34:26.547Z,18.20
2023-05-22T21:36:53.567Z,18.20
2023-05-22T21:39:20.584Z,18.10
2023-05-22T21:41:49.974Z,18.20
2023-05-22T21:44:18.714Z,18.20
2023-05-22T21:46:48.670Z,18.20
2023-05-22T21:49:17.448Z,18.30
2023-05-22T21:51:44.696Z,18.20
2023-05-22T21:54:14.494Z,18.20
2023-05-22T21:56:48.579Z,18.20
2023-05-22T21:59:32.735Z,18.10
2023-05-22T22:02:15.660Z,18.00
2023-05-22T22:04:45.324Z,18.00
2023-05-22T22:07:20.932Z,18.00
2023-05-22T22:09:51.937Z,18.00
2023-05-22T22:12:31.125Z,18.00
2023-05-22T22:14:58.135Z,17.90
2023-05-22T22:17:25.146Z,17.90
2023-05-22T22:19:56.944Z,17.90
2023-05-22T22:22:29.057Z,17.90
2023-05-22T22:24:56.120Z,17.90
2023-05-22T22:30:56.860Z,17.90
2023-05-22T22:33:33.809Z,17.80
2023-05-22T22:36:05.323Z,17.80
2023-05-22T22:38:32.948Z,17.80
2023-05-22T22:41:11.709Z,17.70
2023-05-22T22:43:45.248Z,17.70
2023-05-22T22:46:14.796Z,17.80
2023-05-22T22:48:51.219Z,17.80
2023-05-22T22:51:21.915Z,17.70
2023-05-22T22:53:49.240Z,17.60
2023-05-22T22:56:17.060Z,17.50
2023-05-22T22:58:44.392Z,17.50
2023-05-22T23:01:25.494Z,17.40
2023-05-22T23:04:04.704Z,17.30
2023-05-22T23:06:36.795Z,17.20
2023-05-22T23:09:33.997Z,17.10
2023-05-22T23:12:00.958Z,17.20
2023-05-22T23:14:28.158Z,17.20
2023-05-22T23:16:54.987Z,17.10
2023-05-22T23:19:21.888Z,17.10
2023-05-22T23:21:48.773Z,17.10
2023-05-22T23:24:15.531Z,17.10
2023-05-22T23:26:42.308Z,17.00
2023-05-22T23:29:09.026Z,17.10
2023-05-22T23:31:38.878Z,17.10
2023-05-22T23:34:05.807Z,16.90
2023-05-22T23:36:32.598Z,16.90
2023-05-22T23:38:59.436Z,17.00
2023-05-22T23:41:27.443Z,17.00
2023-05-22T23:43:54.236Z,17.00
2023-05-22T23:46:22.003Z,16.90
2023-05-22T23:48:48.790Z,17.00
2023-05-22T23:51:16.820Z,16.90
2023-05-22T23:53:43.634Z,16.80
2023-05-22T23:56:10.809Z,16.90
2023-05-22T23:58:38.242Z,16.90
